Rockfield, Wisconsin
Current Conditions -  °F | °C
As of 9:15 PM on Monday 26 Jan 2015 (Local Time) from KMWC Reporting Station
Light Snow Light Snow  
Wind Chill: 27°   Ceiling: 2300
Heat Index: 27°   Visibility: 7mi
Dew Point: 21°   Wind: 0mph
Humidity: 80%   Direction: NA
Pressure: 29.91"   Gusts: NA
Location:  43.2326°N, 88.1158°W
Report Text: KMWC 270315Z AUTO 00000KT 7SM -SN OVC023 M03/M06 A2991 RMK AO2
Loading
Personal Weather Stations






























Interactive Weather Map New forecast layout! Learn more

10-Day Weather Forecast

Advertisements
Track Severe Weather on mobile